Time;durP1;ratioP1;P1;durP2;ratioP2;P2;SDS_P1;SDS_P2;PMS_P1;PMS_P2;Temp;Humidity;BMP_temperature;BMP_pressure;BME280_temperature;BME280_humidity;BME280_pressure;Samples;Min_cycle;Max_cycle;Signal;HPM_P1;HPM_P2
2021/10/04 00:01:51;;;;;;;5.38;3.30;;;;;;;25.78;28.18;98252.44;5073315;28;20392;-84
2021/10/04 00:04:17;;;;;;;6.18;3.25;;;;;;;25.40;28.79;98260.59;5073754;28;20035;-84
2021/10/04 00:06:43;;;;;;;5.50;3.55;;;;;;;26.29;27.56;98262.72;5092869;28;20497;-85
2021/10/04 00:09:09;;;;;;;4.18;2.90;;;;;;;26.46;26.91;98258.63;5087551;28;20090;-85
2021/10/04 00:11:35;;;;;;;3.53;2.80;;;;;;;26.97;26.27;98258.72;5098564;28;20032;-85
2021/10/04 00:14:01;;;;;;;5.25;3.20;;;;;;;26.06;27.48;98252.47;5111974;28;20491;-86
2021/10/04 00:16:28;;;;;;;3.47;2.75;;;;;;;26.38;27.26;98265.69;5086582;28;20024;-85
2021/10/04 00:18:54;;;;;;;5.72;3.03;;;;;;;25.71;28.20;98255.44;5079604;28;20429;-85
2021/10/04 00:21:20;;;;;;;4.65;3.28;;;;;;;25.80;27.79;98264.03;5075008;28;20125;-85
2021/10/04 00:23:46;;;;;;;4.00;3.33;;;;;;;25.21;28.98;98253.00;5083287;28;20020;-86
2021/10/04 00:26:12;;;;;;;7.60;3.97;;;;;;;25.94;27.90;98258.03;5083613;28;20496;-85
2021/10/04 00:28:38;;;;;;;5.95;3.70;;;;;;;25.36;28.57;98259.88;5079982;28;20418;-86
2021/10/04 00:31:05;;;;;;;4.95;2.88;;;;;;;25.80;28.33;98249.97;5078499;28;20033;-86
2021/10/04 00:33:31;;;;;;;4.07;3.03;;;;;;;26.24;27.39;98248.38;5083100;28;20077;-86
2021/10/04 00:35:57;;;;;;;4.75;3.28;;;;;;;26.67;26.71;98248.75;5081659;28;20157;-86
2021/10/04 00:38:23;;;;;;;3.80;3.45;;;;;;;25.56;28.13;98251.38;5082742;28;20373;-86
2021/10/04 00:40:50;;;;;;;5.95;2.92;;;;;;;25.95;27.59;98246.31;5082868;28;20048;-86
2021/10/04 00:43:17;;;;;;;7.63;3.25;;;;;;;25.67;28.39;98240.66;5084224;28;20036;-86
2021/10/04 00:45:43;;;;;;;5.57;3.22;;;;;;;25.62;28.00;98244.00;5084925;28;20028;-86
2021/10/04 00:48:09;;;;;;;3.42;2.60;;;;;;;25.95;27.78;98246.31;5076698;28;20546;-86
2021/10/04 00:50:35;;;;;;;5.63;3.40;;;;;;;25.31;28.44;98249.16;5079722;28;20051;-86
2021/10/04 00:53:02;;;;;;;4.45;3.22;;;;;;;25.09;28.88;98240.44;5082220;28;20024;-86
2021/10/04 00:55:28;;;;;;;4.28;3.10;;;;;;;25.83;28.05;98238.63;5079286;28;20059;-85
2021/10/04 00:57:56;;;;;;;3.85;2.75;;;;;;;26.22;27.12;98237.59;5081312;28;20396;-86
2021/10/04 01:00:26;;;;;;;4.32;3.00;;;;;;;25.73;27.90;98238.91;5077666;28;20033;-85
2021/10/04 01:02:53;;;;;;;3.95;2.97;;;;;;;26.01;27.39;98233.31;5084964;28;20402;-85
2021/10/04 01:05:19;;;;;;;6.28;3.67;;;;;;;25.72;27.78;98232.47;5080270;28;20445;-85
2021/10/04 01:07:46;;;;;;;4.15;2.22;;;;;;;26.03;27.62;98230.84;5078623;28;20040;-85
2021/10/04 01:10:13;;;;;;;4.97;3.53;;;;;;;26.47;26.98;98231.22;5081534;28;20024;-85
2021/10/04 01:12:42;;;;;;;4.53;2.65;;;;;;;27.09;26.02;98221.31;5089399;28;20032;-85
2021/10/04 01:15:09;;;;;;;4.15;2.90;;;;;;;27.47;25.34;98227.72;5081824;28;20488;-85
2021/10/04 01:17:35;;;;;;;3.17;2.88;;;;;;;27.40;25.26;98225.94;5080510;28;20134;-85
2021/10/04 01:20:13;;;;;;;3.88;3.13;;;;;;;26.55;26.45;98233.41;5073766;28;20033;-86
2021/10/04 01:22:40;;;;;;;4.47;3.22;;;;;;;25.57;27.73;98225.66;5075878;28;20401;-85
2021/10/04 01:25:07;;;;;;;4.30;3.10;;;;;;;25.59;27.58;98228.81;5078299;28;20465;-85
2021/10/04 01:27:34;;;;;;;3.40;3.00;;;;;;;24.43;29.54;98225.88;5084331;28;20439;-85
2021/10/04 01:30:00;;;;;;;3.30;2.85;;;;;;;24.89;29.00;98224.88;5079170;28;20032;-84
2021/10/04 01:32:27;;;;;;;4.65;2.97;;;;;;;24.98;28.54;98227.88;5079338;28;20032;-85
2021/10/04 01:34:57;;;;;;;4.47;3.10;;;;;;;24.55;29.48;98225.97;5079445;28;20024;-85
2021/10/04 01:37:24;;;;;;;6.28;3.25;;;;;;;25.64;28.00;98233.09;5079262;28;20036;-85
2021/10/04 01:39:50;;;;;;;8.38;3.17;;;;;;;25.09;28.43;98229.19;5081322;28;20473;-85
2021/10/04 01:42:17;;;;;;;4.97;3.83;;;;;;;25.45;28.29;98231.97;5080097;28;20036;-85
2021/10/04 01:44:43;;;;;;;4.45;2.92;;;;;;;26.05;26.87;98228.38;5082373;28;20423;-85
2021/10/04 01:47:09;;;;;;;5.47;3.80;;;;;;;25.41;28.10;98231.25;5087956;28;20024;-85
2021/10/04 01:49:35;;;;;;;3.08;2.42;;;;;;;25.93;27.51;98229.09;5088868;28;20032;-85
2021/10/04 01:52:02;;;;;;;4.50;3.00;;;;;;;26.07;26.93;98234.34;5089202;28;20035;-85
2021/10/04 01:54:28;;;;;;;3.10;2.40;;;;;;;26.46;26.58;98235.28;5084138;28;20035;-85
2021/10/04 01:56:54;;;;;;;3.65;2.85;;;;;;;26.36;26.56;98233.56;5083131;28;20484;-86
2021/10/04 01:59:20;;;;;;;4.20;2.75;;;;;;;26.07;27.06;98236.34;5085164;28;20037;-85
2021/10/04 02:01:46;;;;;;;3.38;2.22;;;;;;;26.03;27.39;98235.66;5087076;28;20036;-85
2021/10/04 02:04:12;;;;;;;4.47;2.95;;;;;;;26.37;26.33;98232.34;5077469;28;20028;-85
2021/10/04 02:06:38;;;;;;;3.67;2.40;;;;;;;26.29;26.80;98236.59;5087276;28;20527;-85
2021/10/04 02:09:04;;;;;;;4.78;3.28;;;;;;;25.73;27.34;98228.44;5084219;28;20035;-85
2021/10/04 02:11:30;;;;;;;4.03;2.88;;;;;;;25.04;28.30;98232.53;5093636;28;20111;-85
2021/10/04 02:13:57;;;;;;;4.50;3.00;;;;;;;25.85;27.56;98232.56;5090758;28;20040;-85
2021/10/04 02:16:23;;;;;;;3.92;3.03;;;;;;;25.66;27.58;98230.63;5085968;28;20154;-85
2021/10/04 02:18:49;;;;;;;3.33;2.45;;;;;;;25.74;27.54;98235.63;5081461;28;20028;-85
2021/10/04 02:21:15;;;;;;;6.65;2.67;;;;;;;25.40;27.87;98227.66;5090047;28;20048;-84
2021/10/04 02:23:41;;;;;;;6.28;2.95;;;;;;;24.86;28.46;98222.94;5086604;28;20032;-84
2021/10/04 02:26:07;;;;;;;3.83;3.10;;;;;;;25.07;28.61;98228.06;5090570;28;20032;-85
2021/10/04 02:28:33;;;;;;;2.97;2.20;;;;;;;25.50;27.90;98231.44;5091781;28;20105;-85
2021/10/04 02:30:59;;;;;;;3.30;2.55;;;;;;;26.25;26.74;98230.28;5086896;28;20093;-85
2021/10/04 02:33:25;;;;;;;4.25;2.40;;;;;;;26.93;25.90;98225.03;5086020;28;20032;-85
2021/10/04 02:35:51;;;;;;;5.45;2.20;;;;;;;27.26;25.12;98219.94;5078539;28;20403;-85
2021/10/04 02:38:18;;;;;;;3.05;2.05;;;;;;;27.31;24.80;98222.19;5089051;28;20040;-85
2021/10/04 02:40:46;;;;;;;3.47;2.35;;;;;;;27.49;24.62;98230.91;5080877;28;20060;-84
2021/10/04 02:43:17;;;;;;;1.90;1.63;;;;;;;27.80;24.09;98236.69;5081082;28;20102;-84
2021/10/04 02:45:43;;;;;;;4.53;2.92;;;;;;;27.37;24.79;98226.88;5081602;28;20056;-85
2021/10/04 02:48:09;;;;;;;2.67;1.80;;;;;;;28.00;23.75;98226.75;5085935;28;20131;-84
2021/10/04 02:50:35;;;;;;;3.40;2.47;;;;;;;27.61;24.51;98215.97;5084611;28;20052;-84
2021/10/04 02:53:01;;;;;;;3.17;1.65;;;;;;;27.65;24.45;98224.31;5081311;28;20385;-85
2021/10/04 02:55:27;;;;;;;4.03;3.03;;;;;;;26.59;25.71;98236.91;5091385;28;20028;-84
2021/10/04 02:57:54;;;;;;;3.35;2.28;;;;;;;26.88;25.54;98234.06;5073224;28;20032;-85
2021/10/04 03:00:20;;;;;;;2.50;1.67;;;;;;;27.32;24.70;98230.22;5087866;28;20044;-84
2021/10/04 03:02:46;;;;;;;3.10;2.30;;;;;;;27.48;24.26;98226.50;5089506;28;20079;-85
2021/10/04 03:05:12;;;;;;;3.75;2.05;;;;;;;27.72;24.44;98221.25;5081103;28;20033;-84
2021/10/04 03:07:39;;;;;;;2.75;2.10;;;;;;;28.13;23.28;98220.22;5088542;28;20032;-84
2021/10/04 03:10:05;;;;;;;2.40;1.95;;;;;;;27.86;24.04;98221.56;5087380;28;20039;-84
2021/10/04 03:12:31;;;;;;;3.38;1.95;;;;;;;28.00;23.52;98226.75;5086989;28;20036;-84
2021/10/04 03:14:59;;;;;;;2.47;1.98;;;;;;;28.07;23.46;98222.88;5091424;28;20061;-85
2021/10/04 03:17:25;;;;;;;3.50;1.90;;;;;;;28.03;23.66;98233.47;5088816;28;20488;-85
2021/10/04 03:19:51;;;;;;;2.22;1.60;;;;;;;28.48;23.21;98233.84;5078673;28;20037;-85
2021/10/04 03:22:18;;;;;;;2.30;1.92;;;;;;;27.85;23.92;98222.78;5082752;28;20036;-84
2021/10/04 03:24:44;;;;;;;3.63;2.40;;;;;;;27.58;24.44;98219.72;5075558;28;20371;-84
2021/10/04 03:27:10;;;;;;;6.40;2.38;;;;;;;27.74;24.32;98221.59;5074742;28;20516;-84
2021/10/04 03:29:36;;;;;;;2.45;1.83;;;;;;;27.97;23.84;98233.25;5082568;28;20366;-84
2021/10/04 03:32:02;;;;;;;4.03;2.45;;;;;;;27.47;24.50;98219.25;5090755;28;20035;-84
2021/10/04 03:34:29;;;;;;;5.22;2.38;;;;;;;27.50;24.47;98209.91;5079985;28;20036;-84
2021/10/04 03:36:56;;;;;;;4.13;2.28;;;;;;;27.46;24.73;98226.16;5073905;28;20089;-84
2021/10/04 03:39:22;;;;;;;2.53;1.95;;;;;;;27.36;24.85;98221.63;5081280;28;20024;-84
2021/10/04 03:41:48;;;;;;;2.60;1.83;;;;;;;27.90;24.17;98227.88;5084512;28;20036;-84
2021/10/04 03:44:14;;;;;;;3.33;2.50;;;;;;;27.63;24.66;98218.34;5105309;28;20488;-84
2021/10/04 03:46:41;;;;;;;3.03;2.33;;;;;;;27.25;24.84;98227.63;5093184;28;20043;-85
2021/10/04 03:49:07;;;;;;;3.35;1.83;;;;;;;27.36;24.83;98235.72;5081012;28;20031;-85
2021/10/04 03:51:33;;;;;;;2.38;2.08;;;;;;;27.47;24.62;98229.78;5081536;28;20041;-84
2021/10/04 03:53:59;;;;;;;1.88;1.77;;;;;;;27.77;24.34;98231.97;5085790;28;20028;-85
2021/10/04 03:56:25;;;;;;;1.90;1.80;;;;;;;27.68;24.44;98221.38;5077936;28;20020;-85
2021/10/04 03:58:51;;;;;;;2.70;2.15;;;;;;;27.63;24.55;98230.44;5082863;28;20064;-85
2021/10/04 04:01:17;;;;;;;2.13;1.92;;;;;;;27.84;24.15;98234.56;5078046;28;20039;-85
2021/10/04 04:03:44;;;;;;;4.03;1.95;;;;;;;27.88;24.21;98230.34;5085819;28;20397;-84
2021/10/04 04:06:10;;;;;;;4.38;1.90;;;;;;;27.98;23.90;98229.16;5081926;28;20435;-84
2021/10/04 04:08:36;;;;;;;1.63;1.50;;;;;;;28.00;23.77;98223.91;5091595;28;20037;-84
2021/10/04 04:11:03;;;;;;;2.72;1.80;;;;;;;27.89;24.01;98226.28;5081910;28;20051;-84
2021/10/04 04:13:30;;;;;;;2.55;2.13;;;;;;;27.96;23.77;98230.88;5083282;28;20546;-84
2021/10/04 04:15:56;;;;;;;2.58;1.73;;;;;;;27.89;23.98;98229.09;5077701;28;20028;-84
2021/10/04 04:18:22;;;;;;;1.90;1.58;;;;;;;28.24;23.47;98235.53;5077986;28;20508;-84
2021/10/04 04:20:48;;;;;;;2.42;1.45;;;;;;;28.05;23.72;98223.31;5090531;28;20036;-84
2021/10/04 04:23:14;;;;;;;2.88;1.77;;;;;;;28.18;23.53;98230.94;5078276;28;20063;-84
2021/10/04 04:25:40;;;;;;;2.60;2.03;;;;;;;28.02;23.69;98238.34;5080879;28;20022;-84
2021/10/04 04:28:07;;;;;;;2.42;1.95;;;;;;;27.82;23.95;98234.97;5078050;28;20388;-84
2021/10/04 04:30:33;;;;;;;3.65;2.40;;;;;;;27.10;24.79;98226.50;5078487;28;20112;-83
2021/10/04 04:32:59;;;;;;;2.50;2.03;;;;;;;27.19;25.08;98226.59;5078730;28;20047;-83
2021/10/04 04:35:25;;;;;;;2.65;1.42;;;;;;;27.37;24.70;98231.72;5080251;28;20086;-83
2021/10/04 04:37:52;;;;;;;1.50;1.40;;;;;;;27.51;24.41;98233.25;5078705;28;20036;-83
2021/10/04 04:40:19;;;;;;;1.92;1.70;;;;;;;27.37;24.61;98232.50;5079667;28;20035;-83
2021/10/04 04:42:46;;;;;;;2.53;1.92;;;;;;;27.59;24.58;98237.41;5078955;28;20067;-84
2021/10/04 04:45:15;;;;;;;2.60;1.75;;;;;;;27.67;24.32;98235.94;5082448;28;20032;-85
2021/10/04 04:47:42;;;;;;;1.88;1.58;;;;;;;28.13;23.58;98237.97;5088998;28;20435;-85
2021/10/04 04:50:08;;;;;;;2.55;1.58;;;;;;;28.05;23.80;98242.31;5080549;28;20049;-85
2021/10/04 04:52:35;;;;;;;2.85;1.70;;;;;;;28.14;23.79;98244.41;5087794;28;20034;-84
2021/10/04 04:55:02;;;;;;;3.28;1.30;;;;;;;28.39;23.25;98249.94;5082742;28;20498;-84
2021/10/04 04:57:28;;;;;;;2.53;1.95;;;;;;;28.23;23.40;98250.13;5088905;28;20068;-86
2021/10/04 04:59:54;;;;;;;2.50;1.50;;;;;;;27.81;24.01;98244.72;5084879;28;20077;-86
2021/10/04 05:02:20;;;;;;;4.18;2.10;;;;;;;27.76;24.27;98248.09;5088416;28;20032;-86
2021/10/04 05:04:47;;;;;;;6.22;2.67;;;;;;;27.45;24.33;98246.34;5083938;28;20028;-86
2021/10/04 05:07:13;;;;;;;3.80;2.00;;;;;;;27.07;24.87;98249.16;5078701;28;20047;-87
2021/10/04 05:09:39;;;;;;;2.58;1.58;;;;;;;27.42;24.71;98247.28;5088761;28;20028;-86
2021/10/04 05:12:05;;;;;;;1.80;1.67;;;;;;;27.31;24.63;98239.91;5075647;28;20025;-86
2021/10/04 05:14:31;;;;;;;2.83;2.30;;;;;;;27.28;24.93;98249.25;5084320;28;20505;-87
2021/10/04 05:16:57;;;;;;;3.25;1.90;;;;;;;27.11;25.41;98247.03;5080823;28;20025;-87
2021/10/04 05:19:24;;;;;;;4.35;1.90;;;;;;;27.03;25.37;98254.09;5088186;28;20037;-87
2021/10/04 05:21:50;;;;;;;4.68;1.88;;;;;;;26.89;25.92;98257.34;5085597;28;20043;-87
2021/10/04 05:24:16;;;;;;;1.98;1.75;;;;;;;26.82;26.18;98254.75;5089248;28;20024;-88
2021/10/04 05:26:43;;;;;;;2.22;2.03;;;;;;;26.98;25.96;98255.47;5093132;28;20028;-87
2021/10/04 05:29:09;;;;;;;3.25;1.90;;;;;;;27.35;25.54;98253.91;5093613;28;20170;-87
2021/10/04 05:31:36;;;;;;;5.43;2.00;;;;;;;27.36;25.52;98252.66;5095438;28;20047;-87
2021/10/04 05:34:02;;;;;;;1.92;1.73;;;;;;;27.68;25.63;98252.41;5089381;28;20494;-87
2021/10/04 05:36:29;;;;;;;2.72;1.98;;;;;;;27.81;25.50;98253.19;5076204;28;20036;-87
2021/10/04 05:38:55;;;;;;;2.20;1.70;;;;;;;27.99;25.47;98250.56;5088388;28;20035;-87
2021/10/04 05:41:22;;;;;;;2.00;1.50;;;;;;;28.46;25.11;98253.28;5086616;28;20110;-87
2021/10/04 05:43:48;;;;;;;1.95;1.60;;;;;;;28.87;24.75;98266.28;5096636;28;20039;-88
2021/10/04 05:46:14;;;;;;;1.67;1.13;;;;;;;29.59;23.96;98263.03;5096740;28;20028;-87
2021/10/04 05:48:41;;;;;;;2.13;1.77;;;;;;;29.80;23.94;98267.03;5095554;28;20427;-87
2021/10/04 05:51:09;;;;;;;1.88;1.60;;;;;;;30.22;23.26;98258.75;5090705;28;20493;-88
2021/10/04 05:53:36;;;;;;;2.80;1.80;;;;;;;30.16;23.28;98257.78;5076351;28;20036;-88
2021/10/04 05:56:02;;;;;;;2.65;1.40;;;;;;;30.78;22.63;98261.88;5076091;28;20037;-88
2021/10/04 05:58:28;;;;;;;2.90;1.60;;;;;;;31.01;22.31;98263.25;5089372;28;20066;-88
2021/10/04 06:00:54;;;;;;;2.83;1.70;;;;;;;31.41;22.17;98260.91;5096421;28;20060;-88
2021/10/04 06:03:21;;;;;;;1.55;1.45;;;;;;;31.48;22.26;98265.47;5094463;28;20032;-88
2021/10/04 06:05:47;;;;;;;1.55;1.45;;;;;;;31.48;21.54;98263.44;5095079;28;20036;-88
2021/10/04 06:08:13;;;;;;;1.48;1.02;;;;;;;31.57;21.80;98262.59;5096123;28;20043;-88
2021/10/04 06:10:39;;;;;;;1.67;1.20;;;;;;;31.66;22.00;98259.69;5096005;28;20039;-88
2021/10/04 06:13:05;;;;;;;3.08;1.35;;;;;;;32.17;21.68;98266.00;5083242;28;20599;-88
2021/10/04 06:15:31;;;;;;;1.38;1.10;;;;;;;32.59;21.00;98260.16;5076892;28;20029;-88
2021/10/04 06:17:57;;;;;;;1.20;1.10;;;;;;;32.27;21.12;98261.84;5075376;28;20400;-88
2021/10/04 06:20:23;;;;;;;1.40;1.30;;;;;;;32.20;21.84;98262.22;5084920;28;20375;-88
2021/10/04 06:22:50;;;;;;;2.47;1.35;;;;;;;32.19;21.68;98257.00;5078123;28;20043;-88
2021/10/04 06:25:17;;;;;;;2.90;1.20;;;;;;;32.35;21.20;98268.69;5078956;28;20044;-88
2021/10/04 06:27:45;;;;;;;1.75;1.40;;;;;;;32.66;21.21;98265.44;5077786;28;20116;-88
2021/10/04 06:30:12;;;;;;;2.55;1.48;;;;;;;32.63;21.64;98266.41;5091782;28;20028;-88
2021/10/04 06:32:39;;;;;;;2.90;1.52;;;;;;;32.63;21.37;98264.38;5082890;28;20453;-89
2021/10/04 06:35:05;;;;;;;2.90;1.60;;;;;;;32.61;21.21;98268.97;5081797;28;20103;-88
2021/10/04 06:37:31;;;;;;;1.33;1.20;;;;;;;32.64;21.58;98262.31;5075271;28;20055;-88
2021/10/04 06:39:57;;;;;;;1.50;1.40;;;;;;;32.80;21.28;98266.72;5075141;28;20389;-89
2021/10/04 06:42:24;;;;;;;2.60;1.25;;;;;;;33.14;20.93;98266.84;5082714;28;20059;-89
2021/10/04 06:44:52;;;;;;;2.92;1.27;;;;;;;33.21;20.85;98277.06;5094165;28;20473;-88
2021/10/04 06:47:18;;;;;;;1.70;1.35;;;;;;;33.26;21.22;98276.38;5093463;28;20389;-88
2021/10/04 06:49:44;;;;;;;2.30;1.20;;;;;;;33.05;20.89;98275.50;5090654;28;20493;-89
2021/10/04 06:52:10;;;;;;;1.38;1.27;;;;;;;32.98;21.28;98275.09;5095130;28;20464;-89
2021/10/04 06:54:36;;;;;;;4.57;1.40;;;;;;;32.94;21.38;98274.50;5095057;28;20036;-89
2021/10/04 06:57:03;;;;;;;1.50;1.40;;;;;;;32.94;20.94;98283.81;5080136;28;20036;-89
2021/10/04 06:59:29;;;;;;;1.85;1.20;;;;;;;33.05;21.47;98280.44;5074116;28;20442;-89
2021/10/04 07:01:56;;;;;;;2.25;1.10;;;;;;;33.02;20.74;98276.50;5084077;28;20041;-88
2021/10/04 07:04:22;;;;;;;3.30;1.48;;;;;;;33.20;21.15;98287.66;5076608;28;20028;-88
2021/10/04 07:06:48;;;;;;;1.88;1.00;;;;;;;33.08;21.97;98285.91;5081650;28;20028;-88
2021/10/04 07:09:14;;;;;;;1.30;1.20;;;;;;;32.95;21.57;98288.25;5084595;28;20041;-89
2021/10/04 07:11:40;;;;;;;1.55;1.10;;;;;;;33.33;21.21;98293.84;5073437;28;20393;-88
2021/10/04 07:14:07;;;;;;;1.05;0.98;;;;;;;33.18;21.42;98292.28;5075064;28;20035;-88
2021/10/04 07:16:33;;;;;;;1.88;1.30;;;;;;;33.53;21.13;98292.38;5083948;28;20065;-88
2021/10/04 07:19:00;;;;;;;4.90;1.15;;;;;;;33.44;21.47;98296.84;5075173;28;20063;-88
2021/10/04 07:21:26;;;;;;;1.40;1.20;;;;;;;33.30;21.42;98294.03;5074408;28;20041;-88
2021/10/04 07:23:52;;;;;;;1.67;1.15;;;;;;;33.15;21.66;98293.25;5093655;28;20050;-89
2021/10/04 07:26:19;;;;;;;2.25;1.52;;;;;;;33.35;21.25;98296.97;5094554;28;20024;-89
2021/10/04 07:28:45;;;;;;;1.52;1.42;;;;;;;33.53;22.02;98289.50;5076410;28;20052;-88
2021/10/04 07:31:11;;;;;;;1.52;1.00;;;;;;;33.55;21.72;98296.28;5074393;28;20032;-89
2021/10/04 07:33:37;;;;;;;1.50;1.30;;;;;;;33.53;21.49;98289.50;5073961;28;20545;-88
2021/10/04 07:36:06;;;;;;;1.42;1.33;;;;;;;33.26;21.96;98288.53;5090772;28;20028;-88
2021/10/04 07:38:33;;;;;;;5.38;1.25;;;;;;;33.65;20.91;98294.09;5079720;28;20024;-89
2021/10/04 07:40:59;;;;;;;1.60;1.20;;;;;;;33.32;21.92;98286.59;5074514;28;20477;-89
2021/10/04 07:43:25;;;;;;;1.30;1.20;;;;;;;33.08;22.45;98294.44;5072758;28;20508;-89
2021/10/04 07:45:52;;;;;;;2.03;1.63;;;;;;;33.09;22.21;98295.22;5073066;28;20029;-89
2021/10/04 07:48:18;;;;;;;1.85;1.15;;;;;;;33.23;21.67;98292.38;5076114;28;20021;-89
2021/10/04 07:50:44;;;;;;;1.85;1.35;;;;;;;33.26;22.56;98284.91;5073767;28;20057;-89
2021/10/04 07:53:11;;;;;;;2.15;1.30;;;;;;;33.28;22.70;98291.66;5073894;28;20033;-89
2021/10/04 07:55:39;;;;;;;1.60;1.33;;;;;;;33.48;22.28;98285.28;5074214;28;20504;-89
2021/10/04 07:58:05;;;;;;;2.35;1.67;;;;;;;33.28;22.12;98285.97;5074220;28;20025;-89
2021/10/04 08:00:32;;;;;;;3.70;1.48;;;;;;;32.99;22.47;98282.34;5073375;28;20028;-89
2021/10/04 08:02:58;;;;;;;2.25;1.80;;;;;;;33.23;22.49;98288.75;5073972;28;20029;-89
2021/10/04 08:05:24;;;;;;;1.50;1.40;;;;;;;33.50;22.11;98285.56;5092580;28;20105;-89
2021/10/04 08:07:50;;;;;;;3.70;2.15;;;;;;;33.02;22.53;98279.34;5075049;28;20039;-88
2021/10/04 08:10:16;;;;;;;2.85;1.70;;;;;;;33.26;22.96;98279.22;5076588;28;20039;-88
2021/10/04 08:12:43;;;;;;;3.03;1.55;;;;;;;33.76;21.87;98280.03;5074102;28;20025;-88
2021/10/04 08:15:10;;;;;;;4.07;1.27;;;;;;;34.16;20.97;98279.31;5073578;28;20111;-88
2021/10/04 08:17:37;;;;;;;2.33;1.55;;;;;;;34.40;22.42;98277.78;5073466;28;20024;-88
2021/10/04 08:20:07;;;;;;;1.92;1.50;;;;;;;34.22;21.33;98280.94;5073690;28;20044;-89
2021/10/04 08:22:33;;;;;;;2.03;1.33;;;;;;;34.29;21.27;98274.81;5082942;28;20401;-88
2021/10/04 08:24:59;;;;;;;1.63;1.20;;;;;;;34.15;21.23;98280.56;5076300;28;20032;-88
2021/10/04 08:27:26;;;;;;;1.42;1.17;;;;;;;34.70;21.69;98282.03;5073147;28;20068;-89
2021/10/04 08:29:52;;;;;;;1.73;1.40;;;;;;;34.24;21.73;98271.91;5072313;28;20059;-88
2021/10/04 08:32:18;;;;;;;1.92;1.45;;;;;;;34.39;22.01;98272.59;5073806;28;20029;-88
2021/10/04 08:34:44;;;;;;;2.22;1.70;;;;;;;34.19;21.67;98276.25;5073167;28;20066;-88
2021/10/04 08:37:10;;;;;;;1.98;1.25;;;;;;;34.94;21.91;98278.16;5073107;28;20043;-89
2021/10/04 08:39:36;;;;;;;1.45;1.20;;;;;;;35.40;20.91;98276.75;5073255;28;20028;-88
2021/10/04 08:42:03;;;;;;;1.33;1.23;;;;;;;35.55;20.78;98276.63;5073120;28;20037;-89
2021/10/04 08:44:29;;;;;;;2.13;1.35;;;;;;;35.46;20.71;98273.94;5084137;28;20540;-89
2021/10/04 08:46:55;;;;;;;1.52;1.15;;;;;;;35.62;20.45;98272.53;5092023;28;20066;-88
2021/10/04 08:49:23;;;;;;;1.88;1.27;;;;;;;36.00;19.55;98277.75;5093003;28;20040;-89
2021/10/04 08:51:50;;;;;;;1.52;1.30;;;;;;;35.77;20.26;98282.53;5093153;28;20055;-89
2021/10/04 08:54:21;;;;;;;2.03;1.83;;;;;;;32.74;23.67;98278.03;5083345;28;20035;-88
2021/10/04 08:56:47;;;;;;;1.50;1.40;;;;;;;32.92;23.47;98275.00;5074676;28;20119;-88
2021/10/04 08:59:15;;;;;;;1.45;1.20;;;;;;;34.44;22.61;98271.88;5076574;28;20028;-89
2021/10/04 09:01:41;;;;;;;1.90;1.30;;;;;;;35.30;20.95;98275.41;5077100;28;20397;-89
2021/10/04 09:04:07;;;;;;;1.83;1.38;;;;;;;35.86;20.62;98278.66;5081085;28;20032;-88
2021/10/04 09:06:38;;;;;;;1.38;1.10;;;;;;;36.21;20.50;98275.50;5095639;28;20063;-89
2021/10/04 09:09:15;;;;;;;0.90;0.90;;;;;;;36.38;19.49;98267.78;5096166;28;20481;-89
2021/10/04 09:11:45;;;;;;;1.40;1.00;;;;;;;36.67;18.97;98265.28;5078180;28;20037;-88
2021/10/04 09:14:17;;;;;;;0.90;0.82;;;;;;;36.85;18.88;98266.91;5076117;28;20051;-89
2021/10/04 09:17:02;;;;;;;1.15;0.98;;;;;;;37.02;19.77;98264.84;5094811;28;20075;-89
2021/10/04 09:19:34;;;;;;;1.10;1.00;;;;;;;37.24;18.88;98255.50;5084711;28;20032;-88
2021/10/04 09:22:11;;;;;;;1.55;0.98;;;;;;;36.86;19.07;98267.66;5077827;28;20044;-89
2021/10/04 09:24:40;;;;;;;1.25;1.15;;;;;;;36.66;20.19;98262.94;5076364;28;20038;-89
2021/10/04 09:27:32;;;;;;;1.63;1.53;;;;;;;33.87;22.25;98263.88;5076910;28;20024;-88
2021/10/04 09:30:12;;;;;;;2.80;1.80;;;;;;;32.99;23.76;98270.97;5087205;28;20051;-88
2021/10/04 09:33:02;;;;;;;1.67;1.27;;;;;;;34.19;22.02;98269.75;5095558;28;20396;-89
2021/10/04 09:35:30;;;;;;;1.40;1.13;;;;;;;35.26;21.79;98266.28;5088994;28;20039;-89
2021/10/04 09:38:16;;;;;;;2.35;1.48;;;;;;;33.85;22.78;98263.59;5077458;28;20035;-88
2021/10/04 09:40:47;;;;;;;1.95;1.65;;;;;;;33.67;22.96;98265.91;5078762;28;20067;-88
2021/10/04 09:43:30;;;;;;;1.42;1.05;;;;;;;34.34;22.64;98265.53;5095078;28;20485;-88
2021/10/04 09:46:08;;;;;;;2.25;1.30;;;;;;;35.65;21.91;98272.31;5096691;28;20032;-89
2021/10/04 09:48:35;;;;;;;0.80;0.80;;;;;;;36.59;20.26;98263.44;5096901;28;20078;-89
2021/10/04 09:51:18;;;;;;;1.52;1.25;;;;;;;35.07;20.64;98264.28;5094422;28;20072;-88
2021/10/04 09:54:08;;;;;;;1.35;1.25;;;;;;;36.05;20.78;98272.06;5082421;28;20037;-88
2021/10/04 09:56:35;;;;;;;1.80;1.23;;;;;;;36.30;20.20;98264.63;5077019;28;20032;-88
2021/10/04 09:59:01;;;;;;;1.98;1.48;;;;;;;35.32;21.91;98258.53;5075952;28;20020;-88
2021/10/04 10:01:27;;;;;;;2.15;1.40;;;;;;;33.98;22.86;98257.56;5075598;28;20036;-88
2021/10/04 10:03:55;;;;;;;4.25;1.90;;;;;;;34.79;22.11;98244.03;5076003;28;20109;-88
2021/10/04 10:06:21;;;;;;;2.35;1.52;;;;;;;35.93;21.54;98255.31;5075571;28;20020;-89
2021/10/04 10:08:48;;;;;;;1.30;1.10;;;;;;;36.60;20.37;98251.47;5075176;28;20078;-89
2021/10/04 10:11:17;;;;;;;4.45;1.00;;;;;;;36.83;19.50;98254.41;5076419;28;20501;-89
2021/10/04 10:13:44;;;;;;;1.42;1.15;;;;;;;36.60;20.57;98250.69;5076963;28;20040;-89
2021/10/04 10:16:52;;;;;;;1.55;1.00;;;;;;;35.51;20.64;98252.47;5074355;28;20554;-88
2021/10/04 10:19:23;;;;;;;3.13;2.10;;;;;;;33.00;24.56;98261.94;5022560;28;20056;-88
2021/10/04 10:22:13;;;;;;;1.65;1.38;;;;;;;33.58;24.23;98257.50;5085401;28;20052;-88
2021/10/04 10:24:39;;;;;;;1.92;1.73;;;;;;;33.22;24.94;98250.16;5082703;28;20043;-89
2021/10/04 10:27:06;;;;;;;2.13;1.92;;;;;;;33.92;24.19;98248.91;5075295;28;20029;-88
2021/10/04 10:29:33;;;;;;;4.57;2.88;;;;;;;33.31;25.05;98250.84;5075252;28;20064;-88
2021/10/04 10:31:59;;;;;;;8.77;2.53;;;;;;;32.09;27.06;98253.47;5075424;28;20407;-88
2021/10/04 10:34:27;;;;;;;2.70;2.42;;;;;;;32.36;27.00;98258.13;5075287;28;20035;-88
2021/10/04 10:36:56;;;;;;;4.72;3.45;;;;;;;31.12;27.54;98264.31;5075367;28;20040;-88
2021/10/04 10:39:32;;;;;;;8.23;3.70;;;;;;;30.63;27.91;98260.94;5075893;28;20039;-88
2021/10/04 10:42:26;;;;;;;4.43;3.30;;;;;;;31.34;28.18;98261.25;5088047;28;20040;-88
2021/10/04 10:45:09;;;;;;;5.63;3.25;;;;;;;31.73;27.18;98256.50;5095681;28;20039;-88
2021/10/04 10:47:35;;;;;;;3.72;3.30;;;;;;;32.10;26.57;98255.00;5093863;28;20034;-88
2021/10/04 10:50:17;;;;;;;3.22;2.75;;;;;;;32.95;26.51;98247.63;5093922;28;20040;-88
2021/10/04 10:53:01;;;;;;;3.33;2.58;;;;;;;32.57;25.93;98257.81;5094930;28;20036;-88
2021/10/04 10:55:35;;;;;;;4.43;3.13;;;;;;;31.80;26.79;98261.81;5094245;28;20032;-87
2021/10/04 10:58:16;;;;;;;3.35;2.58;;;;;;;32.01;26.93;98258.72;5085280;28;20029;-88
2021/10/04 11:00:51;;;;;;;3.13;2.63;;;;;;;31.87;27.05;98253.72;5075119;28;20028;-88
2021/10/04 11:03:19;;;;;;;3.53;3.20;;;;;;;32.33;26.64;98254.19;5077383;28;20115;-88
2021/10/04 11:06:06;;;;;;;4.53;3.00;;;;;;;32.55;26.43;98254.66;5094625;28;20024;-88
2021/10/04 11:08:35;;;;;;;5.03;2.83;;;;;;;32.16;27.14;98253.06;5094131;28;20024;-88
2021/10/04 11:11:01;;;;;;;4.68;3.50;;;;;;;31.32;28.41;98260.94;5092858;28;20535;-88
2021/10/04 11:13:33;;;;;;;4.28;3.22;;;;;;;31.42;27.80;98259.63;5094982;28;20036;-88
2021/10/04 11:16:05;;;;;;;6.25;3.45;;;;;;;32.42;26.72;98247.63;5093648;28;20497;-88
2021/10/04 11:18:43;;;;;;;4.07;2.83;;;;;;;33.85;24.78;98243.66;5081026;28;20546;-89
2021/10/04 11:21:14;;;;;;;3.15;2.30;;;;;;;34.18;24.76;98239.69;5074959;28;20089;-88
2021/10/04 11:23:49;;;;;;;4.22;3.75;;;;;;;31.97;26.27;98243.13;5074241;28;20082;-88
2021/10/04 11:26:20;;;;;;;3.90;3.13;;;;;;;31.90;27.52;98241.38;5074194;28;20032;-88
2021/10/04 11:28:49;;;;;;;3.28;2.95;;;;;;;32.50;27.32;98231.81;5074702;28;20032;-88
2021/10/04 11:31:20;;;;;;;5.93;3.60;;;;;;;32.06;27.27;98246.69;5074256;28;20036;-88
2021/10/04 11:33:58;;;;;;;4.03;2.80;;;;;;;31.51;27.59;98245.41;5073673;28;20118;-88
2021/10/04 11:36:28;;;;;;;4.38;3.67;;;;;;;31.89;27.56;98237.00;5079418;28;20094;-88
2021/10/04 11:39:00;;;;;;;3.33;2.97;;;;;;;31.92;27.86;98235.25;5092718;28;20056;-88